• Join FlightAware (Why Join?)
  • Login
  • US Flag 
 
12:31PM EST


 

Airport Tracker/Info


-or-


 

Live Flight TrackerFlight Track Log ✈ EJA361 ✈ 10-Oct-2013 ✈ KLEX - KLUK

Flight Track Log - Related Links

Times and Time Zones

All times are in EDT time to prevent confusion due to time zone crossing. See the EJA361 flight status page for this flight to view local times or setup timezone preferences in your user account.

Time Position Orientation Groundspeed Altitude Reporting Facility
EDT Latitude Longitude Course Direction KTS MPH feet Rate Location/Type
12:44PM 38.1567 -84.5236 16° North 249 287 5,000  Level Indianapolis Center
12:45PM 38.2258 -84.4939 19° North 258 297 5,000  Level Indianapolis Center
12:46PM 38.2956 -84.4631 19° North 261 300 5,000  Level Indianapolis Center
12:47PM 38.3667 -84.4331 18° North 264 304 5,000  Level Indianapolis Center
12:48PM 38.4084 -84.5431 349° North  Level Estimated
12:48PM 38.4386 -84.4033 18° North 267 307 5,000  Level Indianapolis Center
12:49PM 38.4686 -84.5216 16° North  Level FlightAware Approximate
12:49PM 38.5250 -84.4214 351° North 268 308 4,800  Level Indianapolis Center
12:50PM 38.5869 -84.4314 353° North 268 308 4,100 -420 Descending Indianapolis Center
12:51PM 38.6719 -84.4417 355° North 269 310 4,000 -420 Descending Indianapolis Center
12:53PM 38.7667 -84.4500 356° North 213 245 3,100 -420 Descending Cincinnati TRACON
12:54PM 38.8333 -84.4333 11° North 205 236 3,000 -60 Descending Cincinnati TRACON
12:55PM 38.8833 -84.4333 360° North 198 228 3,000  Level Cincinnati TRACON
12:56PM 38.9333 -84.4000 27° Northeast 199 229 3,100  Climbing Cincinnati TRACON
12:57PM 38.9833 -84.3667 27° Northeast 200 230 3,000 -180 Descending Cincinnati TRACON
12:58PM 39.0500 -84.3500 11° North 203 234 2,800 -360 Descending Cincinnati TRACON
12:59PM 39.1000 -84.3500 360° North 193 222 2,300 -720 Descending Cincinnati TRACON
01:00PM 39.1333 -84.3833 322° Northwest 110 127 1,400 -900 Descending Cincinnati TRACON
01:02PM 39.1000 -84.4167 218° Southwest  Level FlightAware Approximate
01:09PM 39.1033 -84.4186 218° Southwest  Level Estimated